createdAt,value
2022-11-01T00:01:21.623Z,95166.00
2022-11-01T00:03:48.223Z,95158.44
2022-11-01T00:06:14.763Z,95161.16
2022-11-01T00:08:41.313Z,95160.88
2022-11-01T00:11:12.200Z,95158.59
2022-11-01T00:13:38.733Z,95162.38
2022-11-01T00:16:05.648Z,95158.28
2022-11-01T00:18:32.421Z,95150.34
2022-11-01T00:20:59.020Z,95146.09
2022-11-01T00:23:25.571Z,95143.22
2022-11-01T00:25:52.114Z,95154.13
2022-11-01T00:28:18.731Z,95143.97
2022-11-01T00:30:45.387Z,95138.28
2022-11-01T00:33:11.953Z,95138.38
2022-11-01T00:35:38.544Z,95145.38
2022-11-01T00:38:06.174Z,95138.72
2022-11-01T00:40:33.143Z,95139.81
2022-11-01T00:42:59.978Z,95147.59
2022-11-01T00:45:26.573Z,95155.41
2022-11-01T00:47:53.209Z,95149.09
2022-11-01T00:50:19.872Z,95148.84
2022-11-01T00:52:46.687Z,95156.28
2022-11-01T00:55:13.245Z,95147.22
2022-11-01T00:57:39.814Z,95146.66
2022-11-01T01:00:07.391Z,95145.09
2022-11-01T01:02:34.046Z,95150.88
2022-11-01T01:05:00.683Z,95148.25
2022-11-01T01:07:27.246Z,95143.75
2022-11-01T01:09:53.879Z,95135.25
2022-11-01T01:12:20.587Z,95138.59
2022-11-01T01:14:47.281Z,95141.63
2022-11-01T01:17:13.981Z,95141.22
2022-11-01T01:19:40.758Z,95138.44
2022-11-01T01:22:07.731Z,95131.47
2022-11-01T01:24:34.340Z,95136.72
2022-11-01T01:27:00.956Z,95131.84
2022-11-01T01:29:27.717Z,95129.97
2022-11-01T01:31:54.301Z,95127.53
2022-11-01T01:34:21.240Z,95132.53
2022-11-01T01:36:48.095Z,95136.06
2022-11-01T01:39:14.680Z,95137.19
2022-11-01T01:41:56.131Z,95134.41
2022-11-01T01:44:50.062Z,95134.09
2022-11-01T01:47:37.098Z,95124.56
2022-11-01T01:50:34.256Z,95124.78
2022-11-01T01:53:10.604Z,95129.41
2022-11-01T01:56:01.623Z,95130.31
2022-11-01T01:58:32.149Z,95131.72
2022-11-01T02:00:59.124Z,95133.91
2022-11-01T02:03:29.901Z,95141.09
2022-11-01T02:06:02.649Z,95140.00
2022-11-01T02:08:29.711Z,95141.78
2022-11-01T02:11:07.387Z,95141.94
2022-11-01T02:13:34.683Z,95144.44
2022-11-01T02:16:28.392Z,95135.53
2022-11-01T02:19:46.362Z,95136.91
2022-11-01T02:22:34.855Z,95140.44
2022-11-01T02:25:32.193Z,95127.84
2022-11-01T02:28:22.114Z,95134.59
2022-11-01T02:30:51.701Z,95132.91
2022-11-01T02:33:30.123Z,95131.50
2022-11-01T02:36:33.867Z,95131.03
2022-11-01T02:39:10.555Z,95130.88
2022-11-01T02:41:45.065Z,95130.19
2022-11-01T02:44:20.338Z,95139.22
2022-11-01T02:47:03.023Z,95133.72
2022-11-01T02:49:41.543Z,95133.28
2022-11-01T02:52:12.353Z,95140.81
2022-11-01T02:54:42.628Z,95138.94
2022-11-01T02:57:36.389Z,95141.56
2022-11-01T03:00:21.564Z,95139.78
2022-11-01T03:02:54.881Z,95140.19
2022-11-01T03:05:37.305Z,95149.44
2022-11-01T03:08:09.507Z,95145.63
2022-11-01T03:11:03.823Z,95147.44
2022-11-01T03:13:57.802Z,95147.19
2022-11-01T03:16:41.509Z,95151.84
2022-11-01T03:19:15.233Z,95148.94
2022-11-01T03:21:50.397Z,95157.66
2022-11-01T03:24:26.415Z,95156.56
2022-11-01T03:27:04.566Z,95155.88
2022-11-01T03:29:32.025Z,95160.78
2022-11-01T03:32:01.104Z,95158.56
2022-11-01T03:34:27.680Z,95161.19
2022-11-01T03:36:58.080Z,95168.47
2022-11-01T03:39:36.809Z,95169.13
2022-11-01T03:42:09.086Z,95173.06
2022-11-01T03:44:41.327Z,95172.97
2022-11-01T03:47:09.059Z,95178.19
2022-11-01T03:49:35.669Z,95177.59
2022-11-01T03:52:02.270Z,95175.63
2022-11-01T03:54:29.224Z,95174.94
2022-11-01T03:56:56.306Z,95185.47
2022-11-01T03:59:26.250Z,95187.25
2022-11-01T04:01:53.011Z,95184.72
2022-11-01T04:04:19.783Z,95186.94
2022-11-01T04:06:46.395Z,95192.72
2022-11-01T04:09:12.967Z,95199.03
2022-11-01T04:11:39.537Z,95195.06
2022-11-01T04:14:24.853Z,95202.66
2022-11-01T04:17:09.925Z,95204.41
2022-11-01T04:19:55.329Z,95206.59
2022-11-01T04:22:24.477Z,95211.97
2022-11-01T04:24:51.424Z,95217.00
2022-11-01T04:27:17.968Z,95210.28
2022-11-01T04:29:44.515Z,95207.53
2022-11-01T04:32:11.075Z,95223.75
2022-11-01T04:34:43.621Z,95223.22
2022-11-01T04:37:11.605Z,95227.16
2022-11-01T04:39:38.271Z,95229.91
2022-11-01T04:42:05.380Z,95220.22
2022-11-01T04:44:32.004Z,95220.16
2022-11-01T04:46:58.606Z,95223.97
2022-11-01T04:49:25.209Z,95225.44
2022-11-01T04:51:51.747Z,95228.13
2022-11-01T04:54:18.272Z,95226.88
2022-11-01T04:56:44.932Z,95230.91
2022-11-01T04:59:11.487Z,95235.88
2022-11-01T05:01:38.229Z,95229.97
2022-11-01T05:04:04.969Z,95237.56
2022-11-01T05:06:32.094Z,95228.63
2022-11-01T05:08:58.655Z,95239.56
2022-11-01T05:11:25.817Z,95237.78
2022-11-01T05:13:52.651Z,95238.09
2022-11-01T05:16:20.456Z,95239.16
2022-11-01T05:18:47.975Z,95245.66
2022-11-01T05:21:14.727Z,95242.75
2022-11-01T05:23:41.362Z,95233.59
2022-11-01T05:26:07.989Z,95234.72
2022-11-01T05:28:34.825Z,95228.41
2022-11-01T05:31:01.417Z,95240.41
2022-11-01T05:33:28.152Z,95249.28
2022-11-01T05:35:54.841Z,95259.00
2022-11-01T05:38:21.437Z,95262.94
2022-11-01T05:40:48.208Z,95267.38
2022-11-01T05:43:14.929Z,95271.75
2022-11-01T05:45:41.579Z,95273.63
2022-11-01T05:48:08.425Z,95284.31
2022-11-01T05:50:35.098Z,95297.59
2022-11-01T05:53:08.670Z,95291.66
2022-11-01T05:55:36.396Z,95300.47
2022-11-01T05:58:03.455Z,95303.75
2022-11-01T06:00:30.019Z,95310.88
2022-11-01T06:03:00.741Z,95309.69
2022-11-01T06:05:28.666Z,95315.28
2022-11-01T06:07:55.544Z,95324.63
2022-11-01T06:10:22.125Z,95331.56
2022-11-01T06:12:48.706Z,95337.34
2022-11-01T06:15:15.547Z,95335.13
2022-11-01T06:17:42.130Z,95345.88
2022-11-01T06:20:09.364Z,95351.66
2022-11-01T06:22:36.397Z,95346.22
2022-11-01T06:25:04.519Z,95346.28
2022-11-01T06:27:31.154Z,95366.88
2022-11-01T06:29:57.726Z,95361.81
2022-11-01T06:32:24.339Z,95368.97
2022-11-01T06:34:50.925Z,95373.88
2022-11-01T06:37:17.548Z,95366.59
2022-11-01T06:39:44.094Z,95387.59
2022-11-01T06:42:10.682Z,95383.41
2022-11-01T06:44:37.241Z,95386.28
2022-11-01T06:47:03.931Z,95385.78
2022-11-01T06:49:30.566Z,95397.19
2022-11-01T06:51:57.260Z,95401.38
2022-11-01T06:54:23.846Z,95404.81
2022-11-01T06:56:50.423Z,95411.47
2022-11-01T06:59:17.046Z,95415.81
2022-11-01T07:01:44.282Z,95418.78
2022-11-01T07:06:42.874Z,95424.69
2022-11-01T07:09:10.307Z,95423.13
2022-11-01T07:11:36.917Z,95426.81
2022-11-01T07:14:03.654Z,95424.94
2022-11-01T07:16:31.252Z,95435.38
2022-11-01T07:18:57.928Z,95441.25
2022-11-01T07:21:24.693Z,95448.03
2022-11-01T07:23:53.660Z,95455.16
2022-11-01T07:26:21.171Z,95457.09
2022-11-01T07:28:47.868Z,95468.38
2022-11-01T07:31:14.666Z,95464.75
2022-11-01T07:33:41.289Z,95467.50
2022-11-01T07:36:08.460Z,95465.75
2022-11-01T07:38:35.081Z,95463.06
2022-11-01T07:41:04.220Z,95466.75
2022-11-01T07:43:31.193Z,95470.38
2022-11-01T07:46:04.055Z,95463.44
2022-11-01T07:48:33.808Z,95468.69
2022-11-01T07:51:00.461Z,95475.78
2022-11-01T07:53:27.096Z,95470.13
2022-11-01T07:55:53.662Z,95474.50
2022-11-01T07:58:20.225Z,95462.41
2022-11-01T08:00:46.966Z,95464.53
2022-11-01T08:03:16.142Z,95466.47
2022-11-01T08:05:44.066Z,95462.41
2022-11-01T08:08:10.683Z,95468.44
2022-11-01T08:10:38.072Z,95469.91
2022-11-01T08:13:09.212Z,95461.81
2022-11-01T08:15:36.061Z,95458.28
2022-11-01T08:18:02.959Z,95467.53
2022-11-01T08:20:30.086Z,95466.75
2022-11-01T08:22:57.118Z,95464.97
2022-11-01T08:25:24.114Z,95471.66
2022-11-01T08:27:51.148Z,95469.22
2022-11-01T08:30:19.223Z,95469.38
2022-11-01T08:32:45.861Z,95471.31
2022-11-01T08:35:12.913Z,95461.59
2022-11-01T08:37:50.253Z,95470.69
2022-11-01T08:40:17.592Z,95467.63
2022-11-01T08:42:44.226Z,95469.91
2022-11-01T08:45:11.937Z,95465.69
2022-11-01T08:47:39.503Z,95469.25
2022-11-01T08:50:10.195Z,95473.94
2022-11-01T08:52:37.841Z,95473.13
2022-11-01T08:55:04.782Z,95470.84
2022-11-01T08:57:31.362Z,95470.53
2022-11-01T08:59:57.995Z,95472.28
2022-11-01T09:02:24.767Z,95471.47
2022-11-01T09:04:51.462Z,95475.97
2022-11-01T09:07:21.037Z,95469.31
2022-11-01T09:09:47.651Z,95472.75
2022-11-01T09:12:14.932Z,95464.59
2022-11-01T09:14:41.900Z,95460.97
2022-11-01T09:17:08.624Z,95460.22
2022-11-01T09:19:35.175Z,95446.38
2022-11-01T09:22:01.718Z,95447.81
2022-11-01T09:24:28.272Z,95444.63
2022-11-01T09:26:54.893Z,95435.94
2022-11-01T09:29:21.548Z,95443.06
2022-11-01T09:31:52.892Z,95446.03
2022-11-01T09:34:20.608Z,95449.06
2022-11-01T09:36:47.744Z,95448.16
2022-11-01T09:39:16.464Z,95457.59
2022-11-01T09:41:47.693Z,95461.03
2022-11-01T09:44:23.363Z,95467.50
2022-11-01T09:46:58.024Z,95474.50
2022-11-01T09:49:31.796Z,95478.81
2022-11-01T09:51:58.989Z,95481.66
2022-11-01T09:54:27.469Z,95481.19
2022-11-01T09:57:05.598Z,95480.56
2022-11-01T09:59:37.285Z,95480.06
2022-11-01T10:02:26.371Z,95479.25
2022-11-01T10:05:14.441Z,95479.88
2022-11-01T10:08:08.695Z,95473.22
2022-11-01T10:10:57.061Z,95479.84
2022-11-01T10:13:36.086Z,95489.41
2022-11-01T10:16:09.673Z,95482.88
2022-11-01T10:18:54.898Z,95481.09
2022-11-01T10:21:25.835Z,95490.34
2022-11-01T10:23:56.338Z,95480.34
2022-11-01T10:26:28.910Z,95474.34
2022-11-01T10:29:08.867Z,95481.72
2022-11-01T10:31:40.066Z,95472.13
2022-11-01T10:34:13.564Z,95474.44
2022-11-01T10:36:44.941Z,95473.44
2022-11-01T10:39:53.501Z,95470.66
2022-11-01T10:42:15.950Z,95462.41
2022-11-01T10:44:48.457Z,95460.47
2022-11-01T10:47:19.003Z,95463.13
2022-11-01T10:50:06.033Z,95463.50
2022-11-01T10:52:59.771Z,95459.38
2022-11-01T10:55:32.812Z,95466.56
2022-11-01T10:58:14.918Z,95463.31
2022-11-01T11:00:42.932Z,95469.88
2022-11-01T11:03:26.025Z,95466.38
2022-11-01T11:05:54.404Z,95466.69
2022-11-01T11:08:23.947Z,95479.34
2022-11-01T11:10:51.125Z,95474.84
2022-11-01T11:13:23.145Z,95474.69
2022-11-01T11:15:56.100Z,95472.16
2022-11-01T11:18:38.569Z,95470.94
2022-11-01T11:21:08.593Z,95468.09
2022-11-01T11:23:41.544Z,95468.31
2022-11-01T11:26:16.570Z,95469.91
2022-11-01T11:28:47.998Z,95471.59
2022-11-01T11:31:23.015Z,95467.56
2022-11-01T11:33:54.656Z,95469.66
2022-11-01T11:36:29.387Z,95470.50
2022-11-01T11:38:56.382Z,95465.44
2022-11-01T11:41:27.381Z,95457.25
2022-11-01T11:43:53.947Z,95467.66
2022-11-01T11:46:26.435Z,95459.44
2022-11-01T11:48:58.100Z,95461.59
2022-11-01T11:51:28.637Z,95464.56
2022-11-01T11:54:22.022Z,95468.16
2022-11-01T11:57:07.040Z,95470.22
2022-11-01T11:59:34.511Z,95469.19
2022-11-01T12:02:03.757Z,95469.66
2022-11-01T12:04:39.794Z,95467.44
2022-11-01T12:07:11.265Z,95468.09
2022-11-01T12:09:46.459Z,95459.88
2022-11-01T12:12:20.167Z,95464.13
2022-11-01T12:14:46.726Z,95469.09
2022-11-01T12:17:25.500Z,95464.22
2022-11-01T12:20:15.050Z,95467.31
2022-11-01T12:22:48.456Z,95467.19
2022-11-01T12:25:20.542Z,95462.78
2022-11-01T12:28:02.181Z,95452.53
2022-11-01T12:30:33.492Z,95460.41
2022-11-01T12:33:07.152Z,95458.38
2022-11-01T12:35:41.261Z,95451.81
2022-11-01T12:38:32.692Z,95453.16
2022-11-01T12:41:03.187Z,95444.25
2022-11-01T12:43:53.404Z,95452.97
2022-11-01T12:46:29.929Z,95455.94
2022-11-01T12:49:19.376Z,95453.25
2022-11-01T12:51:53.281Z,95449.00
2022-11-01T12:54:32.484Z,95450.84
2022-11-01T12:56:59.338Z,95457.13
2022-11-01T12:59:33.251Z,95452.59
2022-11-01T13:02:25.847Z,95464.94
2022-11-01T13:05:12.999Z,95468.69
2022-11-01T13:08:21.510Z,95467.72
2022-11-01T13:10:49.080Z,95467.78
2022-11-01T13:13:38.466Z,95467.97
2022-11-01T13:16:19.218Z,95467.59
2022-11-01T13:19:16.578Z,95461.84
2022-11-01T13:22:03.666Z,95464.53
2022-11-01T13:24:39.519Z,95458.19
2022-11-01T13:27:10.110Z,95458.56
2022-11-01T13:29:51.917Z,95458.63
2022-11-01T13:32:30.140Z,95466.72
2022-11-01T13:35:09.141Z,95460.84
2022-11-01T13:37:43.721Z,95466.13
2022-11-01T13:40:33.554Z,95466.09
2022-11-01T13:43:08.373Z,95465.34
2022-11-01T13:45:49.847Z,95463.66
2022-11-01T13:48:35.367Z,95464.19
2022-11-01T13:51:33.032Z,95462.03
2022-11-01T13:54:17.996Z,95465.91
2022-11-01T13:56:57.384Z,95473.72
2022-11-01T13:59:44.522Z,95464.13
2022-11-01T14:02:23.137Z,95468.41
2022-11-01T14:05:13.516Z,95464.97
2022-11-01T14:07:43.030Z,95460.16
2022-11-01T14:10:30.509Z,95462.06
2022-11-01T14:12:57.031Z,95470.53
2022-11-01T14:15:25.320Z,95460.66
2022-11-01T14:17:57.815Z,95460.75
2022-11-01T14:20:33.255Z,95459.63
2022-11-01T14:23:40.010Z,95464.97
2022-11-01T14:26:19.030Z,95466.78
2022-11-01T14:28:47.816Z,95468.94
2022-11-01T14:31:15.999Z,95465.06
2022-11-01T14:33:43.911Z,95469.97
2022-11-01T14:36:12.922Z,95471.16
2022-11-01T14:39:15.363Z,95474.72
2022-11-01T14:41:44.749Z,95470.81
2022-11-01T14:44:23.361Z,95473.13
2022-11-01T14:46:54.348Z,95475.28
2022-11-01T14:49:40.045Z,95476.56
2022-11-01T14:52:06.565Z,95481.91
2022-11-01T14:54:51.796Z,95476.44
2022-11-01T14:57:21.721Z,95470.28
2022-11-01T14:59:48.357Z,95474.84
2022-11-01T15:02:15.088Z,95475.13
2022-11-01T15:04:44.291Z,95474.84
2022-11-01T15:07:29.425Z,95478.75
2022-11-01T15:10:13.554Z,95479.09
2022-11-01T15:13:00.408Z,95478.75
2022-11-01T15:15:35.179Z,95488.03
2022-11-01T15:18:06.419Z,95484.94
2022-11-01T15:20:40.776Z,95487.25
2022-11-01T15:23:20.150Z,95483.00
2022-11-01T15:25:57.553Z,95490.00
2022-11-01T15:28:32.203Z,95494.72
2022-11-01T15:31:01.693Z,95493.56
2022-11-01T15:33:32.708Z,95494.25
2022-11-01T15:36:00.851Z,95493.91
2022-11-01T15:38:28.585Z,95504.00
2022-11-01T15:40:55.218Z,95500.75
2022-11-01T15:43:24.068Z,95500.91
2022-11-01T15:45:58.554Z,95500.09
2022-11-01T15:48:29.613Z,95510.13
2022-11-01T15:51:00.728Z,95504.75
2022-11-01T15:53:31.400Z,95512.06
2022-11-01T15:56:22.845Z,95501.34
2022-11-01T15:58:52.574Z,95504.63
2022-11-01T16:01:22.805Z,95511.09
2022-11-01T16:03:52.399Z,95515.94
2022-11-01T16:06:26.619Z,95513.22
2022-11-01T16:09:00.294Z,95519.03
2022-11-01T16:11:30.944Z,95520.50
2022-11-01T16:14:03.258Z,95518.88
2022-11-01T16:17:03.397Z,95524.88
2022-11-01T16:19:45.148Z,95525.19
2022-11-01T16:22:33.750Z,95520.97
2022-11-01T16:25:06.546Z,95521.44
2022-11-01T16:27:35.949Z,95528.28
2022-11-01T16:30:08.607Z,95534.78
2022-11-01T16:32:36.000Z,95537.34
2022-11-01T16:35:33.999Z,95537.97
2022-11-01T16:38:00.965Z,95539.44
2022-11-01T16:40:32.381Z,95550.09
2022-11-01T16:42:59.715Z,95551.06
2022-11-01T16:45:26.291Z,95541.97
2022-11-01T16:47:58.002Z,95549.56
2022-11-01T16:50:25.009Z,95555.72
2022-11-01T16:52:51.570Z,95556.34
2022-11-01T16:55:19.593Z,95564.78
2022-11-01T16:57:48.174Z,95569.66
2022-11-01T17:00:15.460Z,95568.84
2022-11-01T17:02:42.383Z,95565.59
2022-11-01T17:05:20.945Z,95569.19
2022-11-01T17:07:48.026Z,95570.50
2022-11-01T17:10:20.973Z,95579.38
2022-11-01T17:12:47.888Z,95579.72
2022-11-01T17:15:15.654Z,95582.81
2022-11-01T17:17:45.586Z,95588.00
2022-11-01T17:20:16.661Z,95585.69
2022-11-01T17:22:43.769Z,95590.59
2022-11-01T17:25:16.309Z,95591.88
2022-11-01T17:27:43.723Z,95595.56
2022-11-01T17:30:10.895Z,95582.59
2022-11-01T17:32:37.468Z,95586.84
2022-11-01T17:35:04.616Z,95596.22
2022-11-01T17:37:32.345Z,95591.03
2022-11-01T17:40:00.761Z,95590.72
2022-11-01T17:42:27.423Z,95591.81
2022-11-01T17:44:54.061Z,95596.84
2022-11-01T17:47:20.724Z,95601.47
2022-11-01T17:49:47.273Z,95601.31
2022-11-01T17:52:13.865Z,95604.34
2022-11-01T17:54:40.668Z,95601.91
2022-11-01T17:57:07.250Z,95594.72
2022-11-01T17:59:33.831Z,95601.84
2022-11-01T18:02:00.480Z,95598.31
2022-11-01T18:04:27.146Z,95594.38
2022-11-01T18:06:53.731Z,95601.34
2022-11-01T18:09:25.584Z,95601.41
2022-11-01T18:12:14.731Z,95604.09
2022-11-01T18:15:09.250Z,95604.34
2022-11-01T18:18:10.260Z,95608.28
2022-11-01T18:20:55.714Z,95609.25
2022-11-01T18:23:24.702Z,95608.00
2022-11-01T18:25:51.572Z,95609.41
2022-11-01T18:28:30.135Z,95611.69
2022-11-01T18:31:02.391Z,95620.44
2022-11-01T18:34:06.629Z,95614.75
2022-11-01T18:36:53.325Z,95613.91
2022-11-01T18:39:42.587Z,95612.81
2022-11-01T18:42:09.828Z,95604.06
2022-11-01T18:44:37.846Z,95608.16
2022-11-01T18:47:15.392Z,95606.66
2022-11-01T18:49:41.957Z,95607.63
2022-11-01T18:52:13.192Z,95606.44
2022-11-01T18:54:48.459Z,95608.56
2022-11-01T18:57:19.043Z,95606.28
2022-11-01T18:59:49.515Z,95606.44
2022-11-01T19:02:28.003Z,95604.00
2022-11-01T19:05:17.733Z,95594.44
2022-11-01T19:08:10.139Z,95591.28
2022-11-01T19:10:38.298Z,95601.84
2022-11-01T19:13:12.736Z,95601.91
2022-11-01T19:15:39.790Z,95596.50
2022-11-01T19:18:19.083Z,95597.47
2022-11-01T19:20:53.088Z,95598.75
2022-11-01T19:23:36.954Z,95604.66
2022-11-01T19:26:04.589Z,95603.06
2022-11-01T19:28:37.108Z,95607.41
2022-11-01T19:31:29.306Z,95614.78
2022-11-01T19:34:00.024Z,95609.63
2022-11-01T19:39:18.910Z,95614.41
2022-11-01T19:41:45.898Z,95619.25
2022-11-01T19:44:18.523Z,95621.41
2022-11-01T19:46:45.116Z,95623.69
2022-11-01T19:49:26.488Z,95615.81
2022-11-01T19:52:20.941Z,95621.94
2022-11-01T19:54:50.371Z,95626.41
2022-11-01T19:57:30.436Z,95628.16
2022-11-01T20:00:21.335Z,95631.25
2022-11-01T20:02:49.994Z,95622.56
2022-11-01T20:05:23.753Z,95623.38
2022-11-01T20:07:50.868Z,95627.66
2022-11-01T20:10:18.187Z,95630.53
2022-11-01T20:12:45.051Z,95626.97
2022-11-01T20:15:11.674Z,95638.13
2022-11-01T20:17:38.285Z,95630.38
2022-11-01T20:20:06.041Z,95632.53
2022-11-01T20:22:32.640Z,95645.38
2022-11-01T20:25:00.162Z,95636.13
2022-11-01T20:27:26.875Z,95638.38
2022-11-01T20:29:53.494Z,95639.06
2022-11-01T20:32:20.049Z,95646.59
2022-11-01T20:34:46.671Z,95648.53
2022-11-01T20:37:29.188Z,95656.25
2022-11-01T20:39:56.593Z,95657.44
2022-11-01T20:42:24.231Z,95655.56
2022-11-01T20:44:51.000Z,95650.50
2022-11-01T20:47:17.539Z,95653.34
2022-11-01T20:49:44.130Z,95653.53
2022-11-01T20:52:33.727Z,95652.16
2022-11-01T20:54:57.344Z,95650.91
2022-11-01T20:57:28.284Z,95649.91
2022-11-01T20:59:55.620Z,95652.19
2022-11-01T21:02:22.626Z,95649.69
2022-11-01T21:04:59.607Z,95663.16
2022-11-01T21:07:29.350Z,95659.22
2022-11-01T21:09:55.949Z,95654.00
2022-11-01T21:12:29.030Z,95661.53
2022-11-01T21:14:58.502Z,95663.44
2022-11-01T21:17:25.117Z,95662.97
2022-11-01T21:19:56.676Z,95659.84
2022-11-01T21:22:23.189Z,95664.66
2022-11-01T21:24:51.109Z,95670.25
2022-11-01T21:27:26.979Z,95667.25
2022-11-01T21:30:15.314Z,95667.47
2022-11-01T21:32:45.017Z,95666.06
2022-11-01T21:35:21.058Z,95667.16
2022-11-01T21:37:50.269Z,95665.16
2022-11-01T21:40:27.642Z,95658.50
2022-11-01T21:42:57.965Z,95650.78
2022-11-01T21:45:30.660Z,95648.91
2022-11-01T21:48:19.489Z,95657.06
2022-11-01T21:50:46.046Z,95661.97
2022-11-01T21:53:12.779Z,95664.78
2022-11-01T21:55:39.370Z,95660.94
2022-11-01T21:58:05.931Z,95665.72
2022-11-01T22:00:32.470Z,95657.25
2022-11-01T22:02:59.025Z,95654.50
2022-11-01T22:05:25.559Z,95654.94
2022-11-01T22:07:52.228Z,95649.34
2022-11-01T22:10:18.857Z,95642.88
2022-11-01T22:12:45.430Z,95650.03
2022-11-01T22:15:12.086Z,95647.59
2022-11-01T22:17:38.654Z,95643.16
2022-11-01T22:20:05.811Z,95645.31
2022-11-01T22:22:32.381Z,95642.13
2022-11-01T22:24:58.954Z,95638.16
2022-11-01T22:27:25.700Z,95643.25
2022-11-01T22:29:52.321Z,95645.03
2022-11-01T22:32:18.891Z,95646.81
2022-11-01T22:34:45.975Z,95651.91
2022-11-01T22:37:13.175Z,95649.59
2022-11-01T22:39:39.947Z,95654.78
2022-11-01T22:42:15.187Z,95651.97
2022-11-01T22:44:45.646Z,95649.75
2022-11-01T22:47:26.490Z,95653.50
2022-11-01T22:50:01.423Z,95652.59
2022-11-01T22:52:30.686Z,95656.56
2022-11-01T22:55:05.211Z,95656.25
2022-11-01T22:57:34.931Z,95656.69
2022-11-01T23:00:21.331Z,95653.44
2022-11-01T23:02:48.065Z,95661.13
2022-11-01T23:05:23.718Z,95651.31
2022-11-01T23:07:54.683Z,95659.16
2022-11-01T23:10:32.855Z,95651.31
2022-11-01T23:13:55.542Z,95658.00
2022-11-01T23:16:30.117Z,95659.16
2022-11-01T23:18:59.809Z,95653.91
2022-11-01T23:21:27.538Z,95653.91
2022-11-01T23:23:54.683Z,95656.72
2022-11-01T23:26:23.758Z,95657.88
2022-11-01T23:28:54.228Z,95667.78
2022-11-01T23:31:21.478Z,95669.66
2022-11-01T23:33:49.589Z,95669.56
2022-11-01T23:36:26.873Z,95665.47
2022-11-01T23:39:14.544Z,95663.94
2022-11-01T23:41:48.660Z,95672.47
2022-11-01T23:44:29.464Z,95670.00
2022-11-01T23:47:02.351Z,95672.72
2022-11-01T23:49:31.713Z,95671.75
2022-11-01T23:51:59.328Z,95675.16
2022-11-01T23:54:42.088Z,95665.81
2022-11-01T23:57:17.552Z,95667.31
2022-11-01T23:59:44.209Z,95672.25
